This is the latest recevied weather packets stored in our database for station/object KI6SYE. If no packets are shown the sender has not sent any weather packets the latest 10 day(s).
| Time | Temp. | Humidity | Pressure | Rain* | Wind** | Luminosity | Snow |
|---|---|---|---|---|---|---|---|
| 1777570741 | 17.78° C | 76% | 1012.8 hPa | 0 mm | - | 661 W/m² | - |
| 1777570437 | 17.78° C | 76% | 1012.9 hPa | 0 mm | - | 651 W/m² | - |
| 1777570133 | 17.78° C | 75% | 1012.9 hPa | 0 mm | - | 641 W/m² | - |
| 1777569829 | 17.78° C | 76% | 1012.9 hPa | 0 mm | - | 629 W/m² | - |
| 1777569525 | 17.78° C | 76% | 1012.9 hPa | 0 mm | - | 622 W/m² | - |
| 1777569222 | 17.22° C | 78% | 1012.8 hPa | 0 mm | - | 607 W/m² | - |
| 1777568919 | 17.78° C | 77% | 1012.9 hPa | 0 mm | - | 582 W/m² | - |
| 1777568615 | 17.78° C | 77% | 1013 hPa | 0 mm | - | 579 W/m² | - |
| 1777568313 | 18.33° C | 76% | 1012.7 hPa | 0 mm | - | 513 W/m² | - |
| 1777568008 | 18.89° C | 74% | 1012.9 hPa | 0 mm | - | 553 W/m² | - |
| 1777567706 | 18.33° C | 76% | 1012.8 hPa | 0 mm | - | 571 W/m² | - |
| 1777567402 | 18.33° C | 75% | 1012.9 hPa | 0 mm | - | 545 W/m² | - |
| 1777567101 | 18.33° C | 76% | 1012.9 hPa | 0 mm | - | 518 W/m² | - |
| 1777566798 | 20° C | 70% | 1013 hPa | 0 mm | - | 500 W/m² | - |
| 1777566496 | 20° C | 68% | 1012.9 hPa | 0 mm | - | 444 W/m² | - |
| 1777566193 | 19.44° C | 69% | 1013 hPa | 0 mm | - | 476 W/m² | - |
| 1777565889 | 18.89° C | 72% | 1012.8 hPa | 0 mm | - | 451 W/m² | - |
| 1777565585 | 18.33° C | 72% | 1013 hPa | 0 mm | - | 460 W/m² | - |
| 1777565282 | 17.78° C | 75% | 1013.1 hPa | 0 mm | - | 217 W/m² | - |
| 1777564977 | 17.78° C | 75% | 1012.9 hPa | 0 mm | - | 277 W/m² | - |
| 1777564673 | 17.22° C | 77% | 1013.3 hPa | 0 mm | - | 248 W/m² | - |
| 1777564368 | 16.67° C | 78% | 1013.2 hPa | 0 mm | - | 219 W/m² | - |
| 1777564065 | 16.67° C | 77% | 1013.3 hPa | 0 mm | - | 212 W/m² | - |
| 1777563761 | 16.67° C | 78% | 1013.4 hPa | 0 mm | - | 216 W/m² | - |
| 1777563458 | 16.67° C | 79% | 1013.1 hPa | 0 mm | - | 185 W/m² | - |
* Rain latest hour (hover to see other rain measurements)
** Current wind speed in m/s (hover to see current wind gust speed)